sensor_id;sensor_type;location;lat;lon;timestamp;P1;durP1;ratioP1;P2;durP2;ratioP2
38262;SDS011;24054;50.128;19.730;2022-09-19T00:00:46;13.35;;;6.82;;
38262;SDS011;24054;50.128;19.730;2022-09-19T00:03:13;12.30;;;7.00;;
38262;SDS011;24054;50.128;19.730;2022-09-19T00:05:40;10.68;;;6.68;;
38262;SDS011;24054;50.128;19.730;2022-09-19T00:08:08;8.88;;;6.45;;
38262;SDS011;24054;50.128;19.730;2022-09-19T00:10:38;9.13;;;6.45;;
38262;SDS011;24054;50.128;19.730;2022-09-19T00:13:07;8.88;;;6.30;;
38262;SDS011;24054;50.128;19.730;2022-09-19T00:15:35;12.40;;;6.90;;
38262;SDS011;24054;50.128;19.730;2022-09-19T00:18:03;11.23;;;6.90;;
38262;SDS011;24054;50.128;19.730;2022-09-19T00:20:30;10.82;;;6.20;;
38262;SDS011;24054;50.128;19.730;2022-09-19T00:23:04;10.27;;;6.72;;
38262;SDS011;24054;50.128;19.730;2022-09-19T00:25:55;9.18;;;6.53;;
38262;SDS011;24054;50.128;19.730;2022-09-19T00:28:23;12.70;;;7.45;;
38262;SDS011;24054;50.128;19.730;2022-09-19T00:30:53;9.55;;;5.93;;
38262;SDS011;24054;50.128;19.730;2022-09-19T00:33:21;9.07;;;6.20;;
38262;SDS011;24054;50.128;19.730;2022-09-19T00:35:53;9.18;;;6.03;;
38262;SDS011;24054;50.128;19.730;2022-09-19T00:38:21;12.38;;;6.28;;
38262;SDS011;24054;50.128;19.730;2022-09-19T00:40:48;11.45;;;6.10;;
38262;SDS011;24054;50.128;19.730;2022-09-19T00:43:16;11.07;;;6.53;;
38262;SDS011;24054;50.128;19.730;2022-09-19T00:45:45;10.45;;;6.70;;
38262;SDS011;24054;50.128;19.730;2022-09-19T00:48:12;14.00;;;6.68;;
38262;SDS011;24054;50.128;19.730;2022-09-19T00:50:42;8.80;;;5.85;;
38262;SDS011;24054;50.128;19.730;2022-09-19T00:53:13;11.57;;;5.75;;
38262;SDS011;24054;50.128;19.730;2022-09-19T00:55:43;7.63;;;5.90;;
38262;SDS011;24054;50.128;19.730;2022-09-19T00:58:11;8.80;;;6.07;;
38262;SDS011;24054;50.128;19.730;2022-09-19T01:00:45;9.25;;;6.10;;
38262;SDS011;24054;50.128;19.730;2022-09-19T01:03:12;9.65;;;5.97;;
38262;SDS011;24054;50.128;19.730;2022-09-19T01:05:45;9.95;;;5.63;;
38262;SDS011;24054;50.128;19.730;2022-09-19T01:08:27;7.47;;;5.63;;
38262;SDS011;24054;50.128;19.730;2022-09-19T01:11:22;8.45;;;5.40;;
38262;SDS011;24054;50.128;19.730;2022-09-19T01:14:05;9.07;;;5.35;;
38262;SDS011;24054;50.128;19.730;2022-09-19T01:19:18;8.18;;;5.45;;
38262;SDS011;24054;50.128;19.730;2022-09-19T01:22:03;7.70;;;5.43;;
38262;SDS011;24054;50.128;19.730;2022-09-19T01:24:46;7.75;;;5.55;;
38262;SDS011;24054;50.128;19.730;2022-09-19T01:33:01;7.72;;;5.15;;
38262;SDS011;24054;50.128;19.730;2022-09-19T01:35:33;7.43;;;5.40;;
38262;SDS011;24054;50.128;19.730;2022-09-19T01:38:04;8.15;;;5.30;;
38262;SDS011;24054;50.128;19.730;2022-09-19T01:40:35;8.32;;;5.45;;
38262;SDS011;24054;50.128;19.730;2022-09-19T01:43:03;7.93;;;5.00;;
38262;SDS011;24054;50.128;19.730;2022-09-19T01:45:38;8.55;;;5.15;;
38262;SDS011;24054;50.128;19.730;2022-09-19T01:48:09;5.50;;;4.57;;
38262;SDS011;24054;50.128;19.730;2022-09-19T01:50:49;8.75;;;4.57;;
38262;SDS011;24054;50.128;19.730;2022-09-19T01:53:33;7.95;;;5.40;;
38262;SDS011;24054;50.128;19.730;2022-09-19T01:56:16;7.35;;;4.97;;
38262;SDS011;24054;50.128;19.730;2022-09-19T01:58:54;9.13;;;5.03;;
38262;SDS011;24054;50.128;19.730;2022-09-19T02:01:31;6.25;;;4.72;;
38262;SDS011;24054;50.128;19.730;2022-09-19T02:04:03;6.10;;;4.60;;
38262;SDS011;24054;50.128;19.730;2022-09-19T02:06:39;6.05;;;4.75;;
38262;SDS011;24054;50.128;19.730;2022-09-19T02:09:15;7.00;;;4.78;;
38262;SDS011;24054;50.128;19.730;2022-09-19T02:11:49;7.00;;;4.97;;
38262;SDS011;24054;50.128;19.730;2022-09-19T02:14:17;7.78;;;4.82;;
38262;SDS011;24054;50.128;19.730;2022-09-19T02:16:49;6.93;;;4.55;;
38262;SDS011;24054;50.128;19.730;2022-09-19T02:19:27;6.57;;;4.30;;
38262;SDS011;24054;50.128;19.730;2022-09-19T02:21:58;5.18;;;4.20;;
38262;SDS011;24054;50.128;19.730;2022-09-19T02:24:29;8.25;;;5.18;;
38262;SDS011;24054;50.128;19.730;2022-09-19T02:27:01;6.40;;;4.65;;
38262;SDS011;24054;50.128;19.730;2022-09-19T02:29:33;7.60;;;4.38;;
38262;SDS011;24054;50.128;19.730;2022-09-19T02:32:04;6.30;;;4.20;;
38262;SDS011;24054;50.128;19.730;2022-09-19T02:34:32;7.70;;;4.60;;
38262;SDS011;24054;50.128;19.730;2022-09-19T02:37:01;5.55;;;3.95;;
38262;SDS011;24054;50.128;19.730;2022-09-19T02:39:32;6.40;;;3.92;;
38262;SDS011;24054;50.128;19.730;2022-09-19T02:42:04;5.57;;;4.20;;
38262;SDS011;24054;50.128;19.730;2022-09-19T02:44:39;8.55;;;4.43;;
38262;SDS011;24054;50.128;19.730;2022-09-19T02:47:19;5.90;;;3.92;;
38262;SDS011;24054;50.128;19.730;2022-09-19T02:49:52;5.20;;;4.00;;
38262;SDS011;24054;50.128;19.730;2022-09-19T02:52:23;5.65;;;4.28;;
38262;SDS011;24054;50.128;19.730;2022-09-19T02:54:54;5.35;;;3.80;;
38262;SDS011;24054;50.128;19.730;2022-09-19T02:57:28;6.60;;;4.40;;
38262;SDS011;24054;50.128;19.730;2022-09-19T02:59:58;6.50;;;4.63;;
38262;SDS011;24054;50.128;19.730;2022-09-19T03:02:32;6.55;;;3.90;;
38262;SDS011;24054;50.128;19.730;2022-09-19T03:05:02;5.97;;;3.97;;
38262;SDS011;24054;50.128;19.730;2022-09-19T03:07:32;4.95;;;4.28;;
38262;SDS011;24054;50.128;19.730;2022-09-19T03:10:07;6.85;;;3.90;;
38262;SDS011;24054;50.128;19.730;2022-09-19T03:12:38;5.03;;;3.60;;
38262;SDS011;24054;50.128;19.730;2022-09-19T03:15:13;5.28;;;3.60;;
38262;SDS011;24054;50.128;19.730;2022-09-19T03:17:43;5.70;;;3.80;;
38262;SDS011;24054;50.128;19.730;2022-09-19T03:20:15;6.00;;;3.88;;
38262;SDS011;24054;50.128;19.730;2022-09-19T03:22:43;7.72;;;3.83;;
38262;SDS011;24054;50.128;19.730;2022-09-19T03:25:11;5.43;;;3.90;;
38262;SDS011;24054;50.128;19.730;2022-09-19T03:27:39;5.97;;;4.00;;
38262;SDS011;24054;50.128;19.730;2022-09-19T03:30:08;4.63;;;3.67;;
38262;SDS011;24054;50.128;19.730;2022-09-19T03:32:37;5.47;;;4.07;;
38262;SDS011;24054;50.128;19.730;2022-09-19T03:35:06;5.55;;;3.33;;
38262;SDS011;24054;50.128;19.730;2022-09-19T03:37:35;4.40;;;3.42;;
38262;SDS011;24054;50.128;19.730;2022-09-19T03:40:02;4.30;;;3.38;;
38262;SDS011;24054;50.128;19.730;2022-09-19T03:42:30;5.18;;;3.70;;
38262;SDS011;24054;50.128;19.730;2022-09-19T03:45:00;3.95;;;3.10;;
38262;SDS011;24054;50.128;19.730;2022-09-19T03:47:28;5.68;;;3.45;;
38262;SDS011;24054;50.128;19.730;2022-09-19T03:49:54;5.38;;;3.75;;
38262;SDS011;24054;50.128;19.730;2022-09-19T03:52:24;4.75;;;3.72;;
38262;SDS011;24054;50.128;19.730;2022-09-19T03:54:52;4.78;;;3.25;;
38262;SDS011;24054;50.128;19.730;2022-09-19T03:57:19;5.18;;;3.10;;
38262;SDS011;24054;50.128;19.730;2022-09-19T03:59:47;4.05;;;3.17;;
38262;SDS011;24054;50.128;19.730;2022-09-19T04:02:14;3.72;;;2.92;;
38262;SDS011;24054;50.128;19.730;2022-09-19T04:04:41;3.72;;;3.10;;
38262;SDS011;24054;50.128;19.730;2022-09-19T04:07:08;4.60;;;3.33;;
38262;SDS011;24054;50.128;19.730;2022-09-19T04:09:36;4.05;;;3.20;;
38262;SDS011;24054;50.128;19.730;2022-09-19T04:12:03;4.25;;;3.05;;
38262;SDS011;24054;50.128;19.730;2022-09-19T04:14:31;4.57;;;3.40;;
38262;SDS011;24054;50.128;19.730;2022-09-19T04:16:58;4.28;;;3.17;;
38262;SDS011;24054;50.128;19.730;2022-09-19T04:19:25;4.50;;;3.08;;
38262;SDS011;24054;50.128;19.730;2022-09-19T04:21:55;5.00;;;3.20;;
38262;SDS011;24054;50.128;19.730;2022-09-19T04:24:26;4.65;;;2.67;;
38262;SDS011;24054;50.128;19.730;2022-09-19T04:26:55;4.97;;;3.03;;
38262;SDS011;24054;50.128;19.730;2022-09-19T04:29:32;5.90;;;2.92;;
38262;SDS011;24054;50.128;19.730;2022-09-19T04:32:01;4.38;;;3.35;;
38262;SDS011;24054;50.128;19.730;2022-09-19T04:34:28;4.43;;;3.28;;
38262;SDS011;24054;50.128;19.730;2022-09-19T04:36:55;3.97;;;3.20;;
38262;SDS011;24054;50.128;19.730;2022-09-19T04:39:22;4.10;;;3.17;;
38262;SDS011;24054;50.128;19.730;2022-09-19T04:41:50;3.60;;;2.55;;
38262;SDS011;24054;50.128;19.730;2022-09-19T04:44:19;4.53;;;2.95;;
38262;SDS011;24054;50.128;19.730;2022-09-19T04:46:47;4.78;;;3.13;;
38262;SDS011;24054;50.128;19.730;2022-09-19T04:49:15;5.47;;;3.13;;
38262;SDS011;24054;50.128;19.730;2022-09-19T04:51:42;3.50;;;2.72;;
38262;SDS011;24054;50.128;19.730;2022-09-19T04:54:10;4.63;;;2.83;;
38262;SDS011;24054;50.128;19.730;2022-09-19T04:56:39;5.18;;;2.95;;
38262;SDS011;24054;50.128;19.730;2022-09-19T04:59:09;3.78;;;2.90;;
38262;SDS011;24054;50.128;19.730;2022-09-19T05:01:38;4.43;;;3.15;;
38262;SDS011;24054;50.128;19.730;2022-09-19T05:04:05;3.05;;;2.50;;
38262;SDS011;24054;50.128;19.730;2022-09-19T05:06:32;4.38;;;2.90;;
38262;SDS011;24054;50.128;19.730;2022-09-19T05:08:59;4.07;;;2.85;;
38262;SDS011;24054;50.128;19.730;2022-09-19T05:11:26;3.58;;;2.50;;
38262;SDS011;24054;50.128;19.730;2022-09-19T05:13:54;3.65;;;2.70;;
38262;SDS011;24054;50.128;19.730;2022-09-19T05:16:21;4.22;;;2.78;;
38262;SDS011;24054;50.128;19.730;2022-09-19T05:18:49;3.15;;;2.20;;
38262;SDS011;24054;50.128;19.730;2022-09-19T05:21:17;3.80;;;2.70;;
38262;SDS011;24054;50.128;19.730;2022-09-19T05:23:44;4.32;;;2.95;;
38262;SDS011;24054;50.128;19.730;2022-09-19T05:26:12;4.53;;;2.47;;
38262;SDS011;24054;50.128;19.730;2022-09-19T05:28:41;5.85;;;3.58;;
38262;SDS011;24054;50.128;19.730;2022-09-19T05:31:11;5.18;;;2.63;;
38262;SDS011;24054;50.128;19.730;2022-09-19T05:33:38;4.38;;;2.63;;
38262;SDS011;24054;50.128;19.730;2022-09-19T05:36:07;5.95;;;2.17;;
38262;SDS011;24054;50.128;19.730;2022-09-19T05:41:01;4.57;;;2.58;;
38262;SDS011;24054;50.128;19.730;2022-09-19T05:45:57;4.18;;;2.90;;
38262;SDS011;24054;50.128;19.730;2022-09-19T05:48:25;4.97;;;2.70;;
38262;SDS011;24054;50.128;19.730;2022-09-19T05:50:55;3.45;;;2.40;;
38262;SDS011;24054;50.128;19.730;2022-09-19T05:53:23;5.88;;;2.30;;
38262;SDS011;24054;50.128;19.730;2022-09-19T05:56:08;4.40;;;2.30;;
38262;SDS011;24054;50.128;19.730;2022-09-19T05:58:35;5.22;;;2.67;;
38262;SDS011;24054;50.128;19.730;2022-09-19T06:01:03;5.05;;;2.60;;
38262;SDS011;24054;50.128;19.730;2022-09-19T06:03:30;7.80;;;2.80;;
38262;SDS011;24054;50.128;19.730;2022-09-19T06:05:59;6.00;;;2.90;;
38262;SDS011;24054;50.128;19.730;2022-09-19T06:08:28;5.97;;;2.60;;
38262;SDS011;24054;50.128;19.730;2022-09-19T06:10:59;6.72;;;3.03;;
38262;SDS011;24054;50.128;19.730;2022-09-19T06:13:26;26.52;;;11.38;;
38262;SDS011;24054;50.128;19.730;2022-09-19T06:16:15;47.85;;;20.30;;
38262;SDS011;24054;50.128;19.730;2022-09-19T06:18:43;61.65;;;26.65;;
38262;SDS011;24054;50.128;19.730;2022-09-19T06:21:10;59.17;;;26.98;;
38262;SDS011;24054;50.128;19.730;2022-09-19T06:23:40;89.00;;;38.95;;
38262;SDS011;24054;50.128;19.730;2022-09-19T06:26:08;122.60;;;46.88;;
38262;SDS011;24054;50.128;19.730;2022-09-19T06:28:36;126.75;;;52.92;;
38262;SDS011;24054;50.128;19.730;2022-09-19T06:31:04;105.82;;;46.33;;
38262;SDS011;24054;50.128;19.730;2022-09-19T06:36:03;89.30;;;37.47;;
38262;SDS011;24054;50.128;19.730;2022-09-19T06:38:30;91.57;;;36.83;;
38262;SDS011;24054;50.128;19.730;2022-09-19T06:40:59;82.57;;;35.05;;
38262;SDS011;24054;50.128;19.730;2022-09-19T06:43:26;74.97;;;35.60;;
38262;SDS011;24054;50.128;19.730;2022-09-19T06:45:55;69.35;;;31.13;;
38262;SDS011;24054;50.128;19.730;2022-09-19T06:48:22;62.85;;;28.63;;
38262;SDS011;24054;50.128;19.730;2022-09-19T06:50:49;62.95;;;28.58;;
38262;SDS011;24054;50.128;19.730;2022-09-19T06:53:17;57.78;;;26.33;;
38262;SDS011;24054;50.128;19.730;2022-09-19T06:55:44;61.83;;;27.17;;
38262;SDS011;24054;50.128;19.730;2022-09-19T06:58:13;59.38;;;26.35;;
38262;SDS011;24054;50.128;19.730;2022-09-19T07:00:41;61.58;;;25.73;;
38262;SDS011;24054;50.128;19.730;2022-09-19T07:03:10;60.33;;;26.58;;
38262;SDS011;24054;50.128;19.730;2022-09-19T07:08:08;66.43;;;33.72;;
38262;SDS011;24054;50.128;19.730;2022-09-19T07:10:35;63.40;;;32.47;;
38262;SDS011;24054;50.128;19.730;2022-09-19T07:13:03;69.57;;;36.13;;
38262;SDS011;24054;50.128;19.730;2022-09-19T07:18:01;67.97;;;33.08;;
38262;SDS011;24054;50.128;19.730;2022-09-19T07:20:28;59.72;;;31.25;;
38262;SDS011;24054;50.128;19.730;2022-09-19T07:22:59;61.22;;;29.70;;
38262;SDS011;24054;50.128;19.730;2022-09-19T07:25:27;65.70;;;30.25;;
38262;SDS011;24054;50.128;19.730;2022-09-19T07:27:55;58.08;;;29.42;;
38262;SDS011;24054;50.128;19.730;2022-09-19T07:30:23;53.83;;;28.73;;
38262;SDS011;24054;50.128;19.730;2022-09-19T07:32:54;57.93;;;28.93;;
38262;SDS011;24054;50.128;19.730;2022-09-19T07:35:22;52.50;;;28.27;;
38262;SDS011;24054;50.128;19.730;2022-09-19T07:37:50;59.80;;;27.52;;
38262;SDS011;24054;50.128;19.730;2022-09-19T07:40:18;54.38;;;27.00;;
38262;SDS011;24054;50.128;19.730;2022-09-19T07:42:45;46.58;;;25.15;;
38262;SDS011;24054;50.128;19.730;2022-09-19T07:47:42;49.08;;;24.90;;
38262;SDS011;24054;50.128;19.730;2022-09-19T07:50:10;47.88;;;24.60;;
38262;SDS011;24054;50.128;19.730;2022-09-19T07:52:42;50.72;;;25.20;;
38262;SDS011;24054;50.128;19.730;2022-09-19T07:55:10;45.78;;;23.75;;
38262;SDS011;24054;50.128;19.730;2022-09-19T07:57:38;44.80;;;24.50;;
38262;SDS011;24054;50.128;19.730;2022-09-19T08:00:05;47.60;;;23.55;;
38262;SDS011;24054;50.128;19.730;2022-09-19T08:05:04;41.88;;;22.80;;
38262;SDS011;24054;50.128;19.730;2022-09-19T08:07:33;45.65;;;23.02;;
38262;SDS011;24054;50.128;19.730;2022-09-19T08:10:00;30.38;;;16.10;;
38262;SDS011;24054;50.128;19.730;2022-09-19T08:12:28;32.17;;;16.33;;
38262;SDS011;24054;50.128;19.730;2022-09-19T08:14:55;25.03;;;13.50;;
38262;SDS011;24054;50.128;19.730;2022-09-19T08:17:23;21.52;;;11.20;;
38262;SDS011;24054;50.128;19.730;2022-09-19T08:19:51;23.87;;;11.27;;
38262;SDS011;24054;50.128;19.730;2022-09-19T08:22:19;18.55;;;11.30;;
38262;SDS011;24054;50.128;19.730;2022-09-19T08:24:48;20.83;;;11.32;;
38262;SDS011;24054;50.128;19.730;2022-09-19T08:27:15;20.77;;;11.55;;
38262;SDS011;24054;50.128;19.730;2022-09-19T08:29:42;30.60;;;11.65;;
38262;SDS011;24054;50.128;19.730;2022-09-19T08:32:10;22.83;;;12.05;;
38262;SDS011;24054;50.128;19.730;2022-09-19T08:34:37;27.60;;;12.68;;
38262;SDS011;24054;50.128;19.730;2022-09-19T08:37:04;22.33;;;11.23;;
38262;SDS011;24054;50.128;19.730;2022-09-19T08:39:31;21.45;;;11.48;;
38262;SDS011;24054;50.128;19.730;2022-09-19T08:42:03;24.50;;;11.73;;
38262;SDS011;24054;50.128;19.730;2022-09-19T08:44:41;18.27;;;10.80;;
38262;SDS011;24054;50.128;19.730;2022-09-19T08:47:21;21.70;;;11.43;;
38262;SDS011;24054;50.128;19.730;2022-09-19T08:49:50;22.52;;;10.82;;
38262;SDS011;24054;50.128;19.730;2022-09-19T08:52:27;19.63;;;11.10;;
38262;SDS011;24054;50.128;19.730;2022-09-19T08:55:02;17.83;;;10.82;;
38262;SDS011;24054;50.128;19.730;2022-09-19T08:57:35;20.55;;;10.75;;
38262;SDS011;24054;50.128;19.730;2022-09-19T09:00:05;18.98;;;11.13;;
38262;SDS011;24054;50.128;19.730;2022-09-19T09:02:38;18.25;;;11.10;;
38262;SDS011;24054;50.128;19.730;2022-09-19T09:05:11;18.05;;;10.52;;
38262;SDS011;24054;50.128;19.730;2022-09-19T09:07:42;19.60;;;10.80;;
38262;SDS011;24054;50.128;19.730;2022-09-19T09:10:24;20.65;;;10.05;;
38262;SDS011;24054;50.128;19.730;2022-09-19T09:13:08;20.38;;;11.10;;
38262;SDS011;24054;50.128;19.730;2022-09-19T09:15:49;22.30;;;10.52;;
38262;SDS011;24054;50.128;19.730;2022-09-19T09:18:38;20.65;;;10.82;;
38262;SDS011;24054;50.128;19.730;2022-09-19T09:21:14;16.42;;;9.55;;
38262;SDS011;24054;50.128;19.730;2022-09-19T09:23:48;17.70;;;10.05;;
38262;SDS011;24054;50.128;19.730;2022-09-19T09:26:23;20.55;;;9.65;;
38262;SDS011;24054;50.128;19.730;2022-09-19T09:28:55;18.88;;;9.02;;
38262;SDS011;24054;50.128;19.730;2022-09-19T09:31:28;16.48;;;9.13;;
38262;SDS011;24054;50.128;19.730;2022-09-19T09:33:59;22.80;;;9.40;;
38262;SDS011;24054;50.128;19.730;2022-09-19T09:36:30;18.48;;;10.05;;
38262;SDS011;24054;50.128;19.730;2022-09-19T09:39:05;20.08;;;9.50;;
38262;SDS011;24054;50.128;19.730;2022-09-19T09:41:44;19.50;;;9.70;;
38262;SDS011;24054;50.128;19.730;2022-09-19T09:44:29;19.88;;;9.63;;
38262;SDS011;24054;50.128;19.730;2022-09-19T09:47:09;14.77;;;7.97;;
38262;SDS011;24054;50.128;19.730;2022-09-19T09:49:47;14.82;;;8.65;;
38262;SDS011;24054;50.128;19.730;2022-09-19T09:52:21;17.47;;;8.33;;
38262;SDS011;24054;50.128;19.730;2022-09-19T09:55:01;16.55;;;8.52;;
38262;SDS011;24054;50.128;19.730;2022-09-19T09:58:10;15.15;;;8.43;;
38262;SDS011;24054;50.128;19.730;2022-09-19T10:00:44;15.60;;;8.20;;
38262;SDS011;24054;50.128;19.730;2022-09-19T10:03:35;14.30;;;7.40;;
38262;SDS011;24054;50.128;19.730;2022-09-19T10:06:15;18.25;;;7.68;;
38262;SDS011;24054;50.128;19.730;2022-09-19T10:08:52;11.98;;;6.15;;
38262;SDS011;24054;50.128;19.730;2022-09-19T10:11:27;16.15;;;6.70;;
38262;SDS011;24054;50.128;19.730;2022-09-19T10:14:03;14.15;;;6.95;;
38262;SDS011;24054;50.128;19.730;2022-09-19T10:16:35;10.32;;;5.35;;
38262;SDS011;24054;50.128;19.730;2022-09-19T10:19:03;12.40;;;6.35;;
38262;SDS011;24054;50.128;19.730;2022-09-19T10:21:41;9.60;;;5.15;;
38262;SDS011;24054;50.128;19.730;2022-09-19T10:27:10;9.23;;;5.18;;
38262;SDS011;24054;50.128;19.730;2022-09-19T10:29:47;11.15;;;5.60;;
38262;SDS011;24054;50.128;19.730;2022-09-19T10:32:23;11.23;;;5.35;;
38262;SDS011;24054;50.128;19.730;2022-09-19T10:34:51;11.55;;;5.47;;
38262;SDS011;24054;50.128;19.730;2022-09-19T10:37:20;10.38;;;5.13;;
38262;SDS011;24054;50.128;19.730;2022-09-19T10:39:51;11.93;;;5.05;;
38262;SDS011;24054;50.128;19.730;2022-09-19T10:45:18;8.95;;;5.15;;
38262;SDS011;24054;50.128;19.730;2022-09-19T10:47:57;9.20;;;5.05;;
38262;SDS011;24054;50.128;19.730;2022-09-19T10:50:28;9.80;;;4.88;;
38262;SDS011;24054;50.128;19.730;2022-09-19T10:53:01;11.48;;;4.65;;
38262;SDS011;24054;50.128;19.730;2022-09-19T10:55:29;9.05;;;5.10;;
38262;SDS011;24054;50.128;19.730;2022-09-19T10:58:12;11.88;;;5.90;;
38262;SDS011;24054;50.128;19.730;2022-09-19T11:00:47;9.52;;;6.00;;
38262;SDS011;24054;50.128;19.730;2022-09-19T11:03:19;9.35;;;5.82;;
38262;SDS011;24054;50.128;19.730;2022-09-19T11:06:01;9.82;;;6.00;;
38262;SDS011;24054;50.128;19.730;2022-09-19T11:08:36;10.23;;;6.35;;
38262;SDS011;24054;50.128;19.730;2022-09-19T11:11:19;11.13;;;6.78;;
38262;SDS011;24054;50.128;19.730;2022-09-19T11:14:07;10.57;;;6.72;;
38262;SDS011;24054;50.128;19.730;2022-09-19T11:17:04;13.07;;;7.43;;
38262;SDS011;24054;50.128;19.730;2022-09-19T11:19:50;10.60;;;7.32;;
38262;SDS011;24054;50.128;19.730;2022-09-19T11:22:44;12.13;;;7.68;;
38262;SDS011;24054;50.128;19.730;2022-09-19T11:25:33;11.75;;;8.55;;
38262;SDS011;24054;50.128;19.730;2022-09-19T11:28:11;11.75;;;7.50;;
38262;SDS011;24054;50.128;19.730;2022-09-19T11:30:47;12.02;;;7.10;;
38262;SDS011;24054;50.128;19.730;2022-09-19T11:36:13;10.63;;;7.20;;
38262;SDS011;24054;50.128;19.730;2022-09-19T11:38:50;12.48;;;7.88;;
38262;SDS011;24054;50.128;19.730;2022-09-19T11:41:32;10.70;;;7.18;;
38262;SDS011;24054;50.128;19.730;2022-09-19T11:44:09;9.63;;;7.18;;
38262;SDS011;24054;50.128;19.730;2022-09-19T11:46:50;12.07;;;7.55;;
38262;SDS011;24054;50.128;19.730;2022-09-19T11:49:29;11.10;;;7.00;;
38262;SDS011;24054;50.128;19.730;2022-09-19T11:52:20;15.30;;;7.22;;
38262;SDS011;24054;50.128;19.730;2022-09-19T11:54:58;10.82;;;7.13;;
38262;SDS011;24054;50.128;19.730;2022-09-19T11:57:44;11.95;;;7.00;;
38262;SDS011;24054;50.128;19.730;2022-09-19T12:00:20;15.27;;;6.65;;
38262;SDS011;24054;50.128;19.730;2022-09-19T12:05:50;15.13;;;6.63;;
38262;SDS011;24054;50.128;19.730;2022-09-19T12:08:34;9.52;;;6.07;;
38262;SDS011;24054;50.128;19.730;2022-09-19T12:11:12;13.18;;;6.28;;
38262;SDS011;24054;50.128;19.730;2022-09-19T12:13:44;10.55;;;6.30;;
38262;SDS011;24054;50.128;19.730;2022-09-19T12:16:16;21.42;;;6.47;;
38262;SDS011;24054;50.128;19.730;2022-09-19T12:18:49;12.63;;;6.65;;
38262;SDS011;24054;50.128;19.730;2022-09-19T12:21:20;14.38;;;6.20;;
38262;SDS011;24054;50.128;19.730;2022-09-19T12:23:52;11.95;;;5.90;;
38262;SDS011;24054;50.128;19.730;2022-09-19T12:29:21;14.23;;;5.53;;
38262;SDS011;24054;50.128;19.730;2022-09-19T12:32:00;15.77;;;6.25;;
38262;SDS011;24054;50.128;19.730;2022-09-19T12:34:33;10.07;;;6.28;;
38262;SDS011;24054;50.128;19.730;2022-09-19T12:37:06;10.32;;;6.40;;
38262;SDS011;24054;50.128;19.730;2022-09-19T12:39:42;12.02;;;6.40;;
38262;SDS011;24054;50.128;19.730;2022-09-19T12:42:16;13.05;;;5.72;;
38262;SDS011;24054;50.128;19.730;2022-09-19T12:44:52;10.73;;;5.35;;
38262;SDS011;24054;50.128;19.730;2022-09-19T12:47:29;11.55;;;5.50;;
38262;SDS011;24054;50.128;19.730;2022-09-19T12:50:08;16.70;;;5.50;;
38262;SDS011;24054;50.128;19.730;2022-09-19T12:52:47;14.88;;;5.90;;
38262;SDS011;24054;50.128;19.730;2022-09-19T12:55:29;11.30;;;4.97;;
38262;SDS011;24054;50.128;19.730;2022-09-19T12:58:06;15.27;;;5.55;;
38262;SDS011;24054;50.128;19.730;2022-09-19T13:00:41;10.25;;;4.93;;
38262;SDS011;24054;50.128;19.730;2022-09-19T13:03:13;13.95;;;6.40;;
38262;SDS011;24054;50.128;19.730;2022-09-19T13:05:46;15.57;;;5.60;;
38262;SDS011;24054;50.128;19.730;2022-09-19T13:08:17;9.23;;;5.40;;
38262;SDS011;24054;50.128;19.730;2022-09-19T13:10:51;13.40;;;5.05;;
38262;SDS011;24054;50.128;19.730;2022-09-19T13:13:26;19.92;;;5.10;;
38262;SDS011;24054;50.128;19.730;2022-09-19T13:15:58;7.35;;;4.47;;
38262;SDS011;24054;50.128;19.730;2022-09-19T13:18:28;13.02;;;4.95;;
38262;SDS011;24054;50.128;19.730;2022-09-19T13:21:14;8.23;;;4.70;;
38262;SDS011;24054;50.128;19.730;2022-09-19T13:24:00;7.93;;;4.85;;
38262;SDS011;24054;50.128;19.730;2022-09-19T13:26:31;8.57;;;5.10;;
38262;SDS011;24054;50.128;19.730;2022-09-19T13:29:02;8.27;;;4.60;;
38262;SDS011;24054;50.128;19.730;2022-09-19T13:34:36;9.68;;;4.88;;
38262;SDS011;24054;50.128;19.730;2022-09-19T13:40:14;7.47;;;4.38;;
38262;SDS011;24054;50.128;19.730;2022-09-19T13:43:00;8.52;;;4.28;;
38262;SDS011;24054;50.128;19.730;2022-09-19T13:45:34;7.00;;;4.43;;
38262;SDS011;24054;50.128;19.730;2022-09-19T13:48:08;10.40;;;4.20;;
38262;SDS011;24054;50.128;19.730;2022-09-19T13:50:47;9.27;;;4.57;;
38262;SDS011;24054;50.128;19.730;2022-09-19T13:53:22;16.00;;;4.38;;
38262;SDS011;24054;50.128;19.730;2022-09-19T13:55:59;8.25;;;4.50;;
38262;SDS011;24054;50.128;19.730;2022-09-19T13:58:30;15.90;;;5.38;;
38262;SDS011;24054;50.128;19.730;2022-09-19T14:01:05;8.63;;;4.90;;
38262;SDS011;24054;50.128;19.730;2022-09-19T14:03:47;9.48;;;4.47;;
38262;SDS011;24054;50.128;19.730;2022-09-19T14:06:23;6.72;;;4.05;;
38262;SDS011;24054;50.128;19.730;2022-09-19T14:09:14;9.23;;;4.00;;
38262;SDS011;24054;50.128;19.730;2022-09-19T14:11:45;7.50;;;4.35;;
38262;SDS011;24054;50.128;19.730;2022-09-19T14:17:27;8.02;;;4.28;;
38262;SDS011;24054;50.128;19.730;2022-09-19T14:19:58;7.05;;;4.20;;
38262;SDS011;24054;50.128;19.730;2022-09-19T14:22:39;9.90;;;3.72;;
38262;SDS011;24054;50.128;19.730;2022-09-19T14:25:13;8.88;;;4.40;;
38262;SDS011;24054;50.128;19.730;2022-09-19T14:27:56;6.30;;;3.95;;
38262;SDS011;24054;50.128;19.730;2022-09-19T14:30:41;9.65;;;3.80;;
38262;SDS011;24054;50.128;19.730;2022-09-19T14:36:35;7.90;;;4.00;;
38262;SDS011;24054;50.128;19.730;2022-09-19T14:39:24;12.02;;;3.65;;
38262;SDS011;24054;50.128;19.730;2022-09-19T14:42:14;6.78;;;4.00;;
38262;SDS011;24054;50.128;19.730;2022-09-19T14:45:02;6.28;;;3.95;;
38262;SDS011;24054;50.128;19.730;2022-09-19T14:47:44;9.57;;;4.22;;
38262;SDS011;24054;50.128;19.730;2022-09-19T14:50:17;6.68;;;3.90;;
38262;SDS011;24054;50.128;19.730;2022-09-19T14:52:50;7.75;;;4.10;;
38262;SDS011;24054;50.128;19.730;2022-09-19T14:55:22;10.43;;;4.20;;
38262;SDS011;24054;50.128;19.730;2022-09-19T14:57:54;7.20;;;3.95;;
38262;SDS011;24054;50.128;19.730;2022-09-19T15:00:25;9.05;;;3.90;;
38262;SDS011;24054;50.128;19.730;2022-09-19T15:02:55;12.75;;;4.55;;
38262;SDS011;24054;50.128;19.730;2022-09-19T15:05:24;6.13;;;4.03;;
38262;SDS011;24054;50.128;19.730;2022-09-19T15:07:54;9.57;;;4.25;;
38262;SDS011;24054;50.128;19.730;2022-09-19T15:10:29;10.13;;;4.43;;
38262;SDS011;24054;50.128;19.730;2022-09-19T15:13:08;7.75;;;3.85;;
38262;SDS011;24054;50.128;19.730;2022-09-19T15:15:47;6.18;;;3.90;;
38262;SDS011;24054;50.128;19.730;2022-09-19T15:18:22;7.63;;;3.97;;
38262;SDS011;24054;50.128;19.730;2022-09-19T15:20:52;6.32;;;3.70;;
38262;SDS011;24054;50.128;19.730;2022-09-19T15:23:28;8.60;;;4.05;;
38262;SDS011;24054;50.128;19.730;2022-09-19T15:25:59;8.77;;;3.72;;
38262;SDS011;24054;50.128;19.730;2022-09-19T15:28:29;6.78;;;3.85;;
38262;SDS011;24054;50.128;19.730;2022-09-19T15:31:03;5.78;;;3.85;;
38262;SDS011;24054;50.128;19.730;2022-09-19T15:33:43;6.50;;;3.70;;
38262;SDS011;24054;50.128;19.730;2022-09-19T15:36:13;7.65;;;3.50;;
38262;SDS011;24054;50.128;19.730;2022-09-19T15:38:43;6.63;;;3.88;;
38262;SDS011;24054;50.128;19.730;2022-09-19T15:43:40;8.57;;;3.47;;
38262;SDS011;24054;50.128;19.730;2022-09-19T15:49:17;7.03;;;3.75;;
38262;SDS011;24054;50.128;19.730;2022-09-19T15:51:55;7.50;;;4.05;;
38262;SDS011;24054;50.128;19.730;2022-09-19T15:54:24;5.72;;;3.72;;
38262;SDS011;24054;50.128;19.730;2022-09-19T15:56:53;8.43;;;3.72;;